sensor_id;sensor_type;location;lat;lon;timestamp;pressure;altitude;pressure_sealevel;temperature;humidity
23261;BME280;11799;47.740;-3.390;2024-02-23T00:02:23;100149.53;;;7.18;100.00
23261;BME280;11799;47.740;-3.390;2024-02-23T00:04:48;100151.91;;;7.21;100.00
23261;BME280;11799;47.740;-3.390;2024-02-23T00:07:14;100150.84;;;7.23;100.00
23261;BME280;11799;47.740;-3.390;2024-02-23T00:09:39;100159.06;;;7.19;100.00
23261;BME280;11799;47.740;-3.390;2024-02-23T00:12:05;100171.53;;;7.28;100.00
23261;BME280;11799;47.740;-3.390;2024-02-23T00:14:31;100172.84;;;7.34;100.00
23261;BME280;11799;47.740;-3.390;2024-02-23T00:16:57;100165.59;;;7.37;100.00
23261;BME280;11799;47.740;-3.390;2024-02-23T00:19:24;100183.88;;;7.39;100.00
23261;BME280;11799;47.740;-3.390;2024-02-23T00:21:50;100199.41;;;7.42;100.00
23261;BME280;11799;47.740;-3.390;2024-02-23T00:24:17;100182.19;;;7.38;100.00
23261;BME280;11799;47.740;-3.390;2024-02-23T00:26:46;100187.50;;;7.25;100.00
23261;BME280;11799;47.740;-3.390;2024-02-23T00:29:12;100183.72;;;7.29;100.00
23261;BME280;11799;47.740;-3.390;2024-02-23T00:31:38;100161.75;;;7.30;100.00
23261;BME280;11799;47.740;-3.390;2024-02-23T00:34:06;100159.00;;;7.32;100.00
23261;BME280;11799;47.740;-3.390;2024-02-23T00:36:44;100155.88;;;7.26;100.00
23261;BME280;11799;47.740;-3.390;2024-02-23T00:39:10;100155.66;;;7.29;100.00
23261;BME280;11799;47.740;-3.390;2024-02-23T00:41:36;100143.25;;;7.32;100.00
23261;BME280;11799;47.740;-3.390;2024-02-23T00:44:02;100132.84;;;7.30;100.00
23261;BME280;11799;47.740;-3.390;2024-02-23T00:46:28;100131.78;;;7.33;100.00
23261;BME280;11799;47.740;-3.390;2024-02-23T00:48:54;100116.75;;;7.35;100.00
23261;BME280;11799;47.740;-3.390;2024-02-23T00:51:20;100106.84;;;7.38;100.00
23261;BME280;11799;47.740;-3.390;2024-02-23T00:53:45;100104.34;;;7.37;100.00
23261;BME280;11799;47.740;-3.390;2024-02-23T00:56:11;100099.69;;;7.40;100.00
23261;BME280;11799;47.740;-3.390;2024-02-23T00:58:38;100096.84;;;7.43;100.00
23261;BME280;11799;47.740;-3.390;2024-02-23T01:01:04;100109.97;;;7.43;100.00
23261;BME280;11799;47.740;-3.390;2024-02-23T01:03:30;100105.44;;;7.45;100.00
23261;BME280;11799;47.740;-3.390;2024-02-23T01:05:55;100127.72;;;7.28;100.00
23261;BME280;11799;47.740;-3.390;2024-02-23T01:08:21;100123.53;;;7.26;100.00
23261;BME280;11799;47.740;-3.390;2024-02-23T01:10:47;100121.81;;;7.14;100.00
23261;BME280;11799;47.740;-3.390;2024-02-23T01:13:12;100112.03;;;7.16;100.00
23261;BME280;11799;47.740;-3.390;2024-02-23T01:15:38;100113.81;;;7.15;100.00
23261;BME280;11799;47.740;-3.390;2024-02-23T01:18:04;100100.66;;;7.04;100.00
23261;BME280;11799;47.740;-3.390;2024-02-23T01:20:31;100087.53;;;7.04;100.00
23261;BME280;11799;47.740;-3.390;2024-02-23T01:22:57;100068.56;;;7.12;100.00
23261;BME280;11799;47.740;-3.390;2024-02-23T01:25:22;100052.69;;;7.02;100.00
23261;BME280;11799;47.740;-3.390;2024-02-23T01:27:48;100053.06;;;7.09;100.00
23261;BME280;11799;47.740;-3.390;2024-02-23T01:30:14;100038.84;;;7.11;100.00
23261;BME280;11799;47.740;-3.390;2024-02-23T01:32:39;100031.31;;;7.07;100.00
23261;BME280;11799;47.740;-3.390;2024-02-23T01:35:06;100036.81;;;7.04;100.00
23261;BME280;11799;47.740;-3.390;2024-02-23T01:37:32;100041.75;;;7.19;100.00
23261;BME280;11799;47.740;-3.390;2024-02-23T01:39:58;100037.44;;;7.18;100.00
23261;BME280;11799;47.740;-3.390;2024-02-23T01:42:24;100041.41;;;7.24;100.00
23261;BME280;11799;47.740;-3.390;2024-02-23T01:44:51;100032.94;;;7.32;100.00
23261;BME280;11799;47.740;-3.390;2024-02-23T01:47:17;100034.22;;;7.15;100.00
23261;BME280;11799;47.740;-3.390;2024-02-23T01:49:45;100034.47;;;7.23;100.00
23261;BME280;11799;47.740;-3.390;2024-02-23T01:52:12;100036.03;;;7.25;100.00
23261;BME280;11799;47.740;-3.390;2024-02-23T01:54:38;100028.38;;;7.22;100.00
23261;BME280;11799;47.740;-3.390;2024-02-23T01:57:04;100028.38;;;7.22;100.00
23261;BME280;11799;47.740;-3.390;2024-02-23T01:59:30;100027.78;;;7.19;100.00
23261;BME280;11799;47.740;-3.390;2024-02-23T02:01:55;100023.97;;;7.23;100.00
23261;BME280;11799;47.740;-3.390;2024-02-23T02:04:21;100027.28;;;7.14;100.00
23261;BME280;11799;47.740;-3.390;2024-02-23T02:06:47;100026.81;;;7.20;100.00
23261;BME280;11799;47.740;-3.390;2024-02-23T02:09:14;100011.78;;;7.22;100.00
23261;BME280;11799;47.740;-3.390;2024-02-23T02:11:50;100020.84;;;7.18;100.00
23261;BME280;11799;47.740;-3.390;2024-02-23T02:14:16;100014.53;;;7.20;100.00
23261;BME280;11799;47.740;-3.390;2024-02-23T02:16:41;100020.28;;;7.25;100.00
23261;BME280;11799;47.740;-3.390;2024-02-23T02:19:07;100023.84;;;7.24;100.00
23261;BME280;11799;47.740;-3.390;2024-02-23T02:21:33;100017.19;;;7.32;100.00
23261;BME280;11799;47.740;-3.390;2024-02-23T02:23:59;100005.59;;;7.34;100.00
23261;BME280;11799;47.740;-3.390;2024-02-23T02:26:25;100004.53;;;7.37;100.00
23261;BME280;11799;47.740;-3.390;2024-02-23T02:28:50;100000.59;;;7.42;100.00
23261;BME280;11799;47.740;-3.390;2024-02-23T02:31:16;99992.59;;;7.44;100.00
23261;BME280;11799;47.740;-3.390;2024-02-23T02:33:41;99998.31;;;7.38;100.00
23261;BME280;11799;47.740;-3.390;2024-02-23T02:36:07;100000.34;;;7.45;100.00
23261;BME280;11799;47.740;-3.390;2024-02-23T02:38:32;99993.66;;;7.41;100.00
23261;BME280;11799;47.740;-3.390;2024-02-23T02:40:59;100003.22;;;7.42;100.00
23261;BME280;11799;47.740;-3.390;2024-02-23T02:43:26;99993.53;;;7.43;100.00
23261;BME280;11799;47.740;-3.390;2024-02-23T02:45:52;100002.88;;;7.47;100.00
23261;BME280;11799;47.740;-3.390;2024-02-23T02:48:17;99999.16;;;7.49;100.00
23261;BME280;11799;47.740;-3.390;2024-02-23T02:50:43;99996.25;;;7.52;100.00
23261;BME280;11799;47.740;-3.390;2024-02-23T02:53:09;100002.22;;;7.54;100.00
23261;BME280;11799;47.740;-3.390;2024-02-23T02:55:36;99992.69;;;7.53;100.00
23261;BME280;11799;47.740;-3.390;2024-02-23T02:58:02;99998.66;;;7.55;100.00
23261;BME280;11799;47.740;-3.390;2024-02-23T03:00:27;100029.09;;;7.58;100.00
23261;BME280;11799;47.740;-3.390;2024-02-23T03:02:53;100027.94;;;7.51;100.00
23261;BME280;11799;47.740;-3.390;2024-02-23T03:05:19;100060.75;;;7.34;100.00
23261;BME280;11799;47.740;-3.390;2024-02-23T03:07:45;100070.13;;;7.14;100.00
23261;BME280;11799;47.740;-3.390;2024-02-23T03:10:10;100080.38;;;7.06;100.00
23261;BME280;11799;47.740;-3.390;2024-02-23T03:12:36;100069.72;;;6.96;100.00
23261;BME280;11799;47.740;-3.390;2024-02-23T03:15:02;100079.09;;;6.77;100.00
23261;BME280;11799;47.740;-3.390;2024-02-23T03:17:30;100069.50;;;6.65;100.00
23261;BME280;11799;47.740;-3.390;2024-02-23T03:19:56;100059.72;;;6.67;100.00
23261;BME280;11799;47.740;-3.390;2024-02-23T03:22:23;100033.56;;;6.54;100.00
23261;BME280;11799;47.740;-3.390;2024-02-23T03:24:48;100026.97;;;6.48;100.00
23261;BME280;11799;47.740;-3.390;2024-02-23T03:27:14;100013.75;;;6.50;100.00
23261;BME280;11799;47.740;-3.390;2024-02-23T03:29:40;100000.50;;;6.51;100.00
23261;BME280;11799;47.740;-3.390;2024-02-23T03:32:05;99987.72;;;6.47;100.00
23261;BME280;11799;47.740;-3.390;2024-02-23T03:34:31;99980.81;;;6.46;100.00
23261;BME280;11799;47.740;-3.390;2024-02-23T03:36:57;99970.66;;;6.41;100.00
23261;BME280;11799;47.740;-3.390;2024-02-23T03:39:24;99957.22;;;6.46;100.00
23261;BME280;11799;47.740;-3.390;2024-02-23T03:41:49;99944.72;;;6.49;100.00
23261;BME280;11799;47.740;-3.390;2024-02-23T03:44:15;99938.50;;;6.50;100.00
23261;BME280;11799;47.740;-3.390;2024-02-23T03:46:40;99943.88;;;6.49;100.00
23261;BME280;11799;47.740;-3.390;2024-02-23T03:49:06;99934.56;;;6.45;100.00
23261;BME280;11799;47.740;-3.390;2024-02-23T03:51:32;99933.72;;;6.44;100.00
23261;BME280;11799;47.740;-3.390;2024-02-23T03:54:00;99925.84;;;6.44;100.00
23261;BME280;11799;47.740;-3.390;2024-02-23T03:56:25;99909.88;;;6.47;100.00
23261;BME280;11799;47.740;-3.390;2024-02-23T03:58:51;99911.44;;;6.50;100.00
23261;BME280;11799;47.740;-3.390;2024-02-23T04:01:16;99900.22;;;6.48;100.00
23261;BME280;11799;47.740;-3.390;2024-02-23T04:03:42;99892.47;;;6.46;100.00
23261;BME280;11799;47.740;-3.390;2024-02-23T04:06:07;99886.44;;;6.57;100.00
23261;BME280;11799;47.740;-3.390;2024-02-23T04:08:33;99883.19;;;6.53;100.00
23261;BME280;11799;47.740;-3.390;2024-02-23T04:10:58;99876.16;;;6.54;100.00
23261;BME280;11799;47.740;-3.390;2024-02-23T04:13:24;99856.00;;;6.54;100.00
23261;BME280;11799;47.740;-3.390;2024-02-23T04:15:50;99845.91;;;6.61;100.00
23261;BME280;11799;47.740;-3.390;2024-02-23T04:18:15;99854.34;;;6.53;100.00
23261;BME280;11799;47.740;-3.390;2024-02-23T04:20:41;99857.56;;;6.57;100.00
23261;BME280;11799;47.740;-3.390;2024-02-23T04:23:07;99862.59;;;6.60;100.00
23261;BME280;11799;47.740;-3.390;2024-02-23T04:25:32;99857.34;;;6.60;100.00
23261;BME280;11799;47.740;-3.390;2024-02-23T04:27:58;99858.16;;;6.49;100.00
23261;BME280;11799;47.740;-3.390;2024-02-23T04:30:23;99843.47;;;6.47;100.00
23261;BME280;11799;47.740;-3.390;2024-02-23T04:32:49;99843.38;;;6.59;100.00
23261;BME280;11799;47.740;-3.390;2024-02-23T04:35:14;99845.91;;;6.61;100.00
23261;BME280;11799;47.740;-3.390;2024-02-23T04:37:43;99842.19;;;6.63;100.00
23261;BME280;11799;47.740;-3.390;2024-02-23T04:40:10;99846.97;;;6.70;100.00
23261;BME280;11799;47.740;-3.390;2024-02-23T04:42:36;99848.03;;;6.67;100.00
23261;BME280;11799;47.740;-3.390;2024-02-23T04:45:02;99847.94;;;6.69;100.00
23261;BME280;11799;47.740;-3.390;2024-02-23T04:47:27;99850.19;;;6.73;100.00
23261;BME280;11799;47.740;-3.390;2024-02-23T04:49:53;99849.97;;;6.76;100.00
23261;BME280;11799;47.740;-3.390;2024-02-23T04:52:18;99852.72;;;6.75;100.00
23261;BME280;11799;47.740;-3.390;2024-02-23T04:54:44;99864.16;;;6.74;100.00
23261;BME280;11799;47.740;-3.390;2024-02-23T04:57:10;99860.22;;;6.79;100.00
23261;BME280;11799;47.740;-3.390;2024-02-23T04:59:35;99861.41;;;6.75;100.00
23261;BME280;11799;47.740;-3.390;2024-02-23T05:02:01;99862.63;;;6.82;100.00
23261;BME280;11799;47.740;-3.390;2024-02-23T05:04:26;99867.75;;;6.84;100.00
23261;BME280;11799;47.740;-3.390;2024-02-23T05:06:52;99867.28;;;6.90;100.00
23261;BME280;11799;47.740;-3.390;2024-02-23T05:09:17;99870.09;;;6.98;100.00
23261;BME280;11799;47.740;-3.390;2024-02-23T05:11:43;99873.44;;;7.00;100.00
23261;BME280;11799;47.740;-3.390;2024-02-23T05:14:11;99882.28;;;6.99;100.00
23261;BME280;11799;47.740;-3.390;2024-02-23T05:16:36;99881.09;;;7.03;100.00
23261;BME280;11799;47.740;-3.390;2024-02-23T05:19:02;99892.06;;;6.97;100.00
23261;BME280;11799;47.740;-3.390;2024-02-23T05:21:28;99901.25;;;7.03;100.00
23261;BME280;11799;47.740;-3.390;2024-02-23T05:23:53;99913.31;;;7.05;100.00
23261;BME280;11799;47.740;-3.390;2024-02-23T05:26:19;99912.72;;;7.02;100.00
23261;BME280;11799;47.740;-3.390;2024-02-23T05:28:45;99925.22;;;6.98;100.00
23261;BME280;11799;47.740;-3.390;2024-02-23T05:31:10;99934.06;;;6.97;100.00
23261;BME280;11799;47.740;-3.390;2024-02-23T05:33:36;99945.78;;;6.93;100.00
23261;BME280;11799;47.740;-3.390;2024-02-23T05:36:04;99941.59;;;7.02;100.00
23261;BME280;11799;47.740;-3.390;2024-02-23T05:38:30;99959.13;;;7.01;100.00
23261;BME280;11799;47.740;-3.390;2024-02-23T05:40:56;99942.53;;;7.01;100.00
23261;BME280;11799;47.740;-3.390;2024-02-23T05:43:21;99967.47;;;6.95;100.00
23261;BME280;11799;47.740;-3.390;2024-02-23T05:45:47;99962.22;;;6.95;100.00
23261;BME280;11799;47.740;-3.390;2024-02-23T05:48:13;99955.53;;;6.80;100.00
23261;BME280;11799;47.740;-3.390;2024-02-23T05:50:39;99945.88;;;6.80;100.00
23261;BME280;11799;47.740;-3.390;2024-02-23T05:53:04;99955.03;;;6.75;100.00
23261;BME280;11799;47.740;-3.390;2024-02-23T05:55:30;99961.09;;;6.64;100.00
23261;BME280;11799;47.740;-3.390;2024-02-23T05:57:56;99961.09;;;6.64;100.00
23261;BME280;11799;47.740;-3.390;2024-02-23T06:00:21;99953.94;;;6.66;100.00
23261;BME280;11799;47.740;-3.390;2024-02-23T06:02:47;99958.59;;;6.62;100.00
23261;BME280;11799;47.740;-3.390;2024-02-23T06:05:13;99971.84;;;6.72;100.00
23261;BME280;11799;47.740;-3.390;2024-02-23T06:07:38;99961.09;;;6.64;100.00
23261;BME280;11799;47.740;-3.390;2024-02-23T06:10:04;99959.59;;;6.49;100.00
23261;BME280;11799;47.740;-3.390;2024-02-23T06:12:30;99963.50;;;6.32;100.00
23261;BME280;11799;47.740;-3.390;2024-02-23T06:14:56;99959.94;;;6.33;100.00
23261;BME280;11799;47.740;-3.390;2024-02-23T06:17:24;99964.34;;;6.44;100.00
23261;BME280;11799;47.740;-3.390;2024-02-23T06:19:50;99955.81;;;6.53;100.00
23261;BME280;11799;47.740;-3.390;2024-02-23T06:22:15;99955.66;;;6.43;100.00
23261;BME280;11799;47.740;-3.390;2024-02-23T06:24:47;99950.84;;;6.37;100.00
23261;BME280;11799;47.740;-3.390;2024-02-23T06:27:12;99943.09;;;6.36;100.00
23261;BME280;11799;47.740;-3.390;2024-02-23T06:29:38;99941.38;;;6.47;100.00
23261;BME280;11799;47.740;-3.390;2024-02-23T06:32:04;99932.66;;;6.47;100.00
23261;BME280;11799;47.740;-3.390;2024-02-23T06:34:29;99924.91;;;6.45;100.00
23261;BME280;11799;47.740;-3.390;2024-02-23T06:36:55;99928.38;;;6.46;100.00
23261;BME280;11799;47.740;-3.390;2024-02-23T06:39:21;99927.91;;;6.52;100.00
23261;BME280;11799;47.740;-3.390;2024-02-23T06:41:46;99914.69;;;6.53;100.00
23261;BME280;11799;47.740;-3.390;2024-02-23T06:44:12;99908.59;;;6.53;100.00
23261;BME280;11799;47.740;-3.390;2024-02-23T06:46:37;99904.41;;;6.50;100.00
23261;BME280;11799;47.740;-3.390;2024-02-23T06:49:03;99891.66;;;6.57;100.00
23261;BME280;11799;47.740;-3.390;2024-02-23T06:51:31;99887.38;;;6.56;100.00
23261;BME280;11799;47.740;-3.390;2024-02-23T06:53:57;99873.31;;;6.57;100.00
23261;BME280;11799;47.740;-3.390;2024-02-23T06:56:22;99869.72;;;6.58;100.00
23261;BME280;11799;47.740;-3.390;2024-02-23T06:58:48;99860.78;;;6.60;100.00
23261;BME280;11799;47.740;-3.390;2024-02-23T07:01:13;99859.97;;;6.60;100.00
23261;BME280;11799;47.740;-3.390;2024-02-23T07:03:39;99850.28;;;6.49;100.00
23261;BME280;11799;47.740;-3.390;2024-02-23T07:06:06;99855.91;;;6.56;100.00
23261;BME280;11799;47.740;-3.390;2024-02-23T07:08:32;99846.25;;;6.56;100.00
23261;BME280;11799;47.740;-3.390;2024-02-23T07:10:57;99838.50;;;6.55;100.00
23261;BME280;11799;47.740;-3.390;2024-02-23T07:13:23;99839.81;;;6.60;100.00
23261;BME280;11799;47.740;-3.390;2024-02-23T07:15:48;99829.78;;;6.54;100.00
23261;BME280;11799;47.740;-3.390;2024-02-23T07:18:14;99836.34;;;6.49;100.00
23261;BME280;11799;47.740;-3.390;2024-02-23T07:20:40;99822.50;;;6.47;100.00
23261;BME280;11799;47.740;-3.390;2024-02-23T07:23:06;99815.94;;;6.52;100.00
23261;BME280;11799;47.740;-3.390;2024-02-23T07:25:32;99829.53;;;6.46;100.00
23261;BME280;11799;47.740;-3.390;2024-02-23T07:27:58;99821.78;;;6.45;100.00
23261;BME280;11799;47.740;-3.390;2024-02-23T07:30:23;99814.50;;;6.48;100.00
23261;BME280;11799;47.740;-3.390;2024-02-23T07:32:49;99814.88;;;6.33;100.00
23261;BME280;11799;47.740;-3.390;2024-02-23T07:35:15;99793.41;;;6.39;100.00
23261;BME280;11799;47.740;-3.390;2024-02-23T07:37:40;99802.00;;;6.29;100.00
23261;BME280;11799;47.740;-3.390;2024-02-23T07:40:06;99804.84;;;6.38;100.00
23261;BME280;11799;47.740;-3.390;2024-02-23T07:42:33;99805.56;;;6.40;100.00
23261;BME280;11799;47.740;-3.390;2024-02-23T07:45:04;99803.44;;;6.45;100.00
23261;BME280;11799;47.740;-3.390;2024-02-23T07:47:31;99808.31;;;6.49;100.00
23261;BME280;11799;47.740;-3.390;2024-02-23T07:49:58;99825.59;;;6.52;100.00
23261;BME280;11799;47.740;-3.390;2024-02-23T07:52:24;99819.19;;;6.56;100.00
23261;BME280;11799;47.740;-3.390;2024-02-23T07:54:51;99821.44;;;6.49;100.00
23261;BME280;11799;47.740;-3.390;2024-02-23T07:57:18;99850.53;;;6.35;100.00
23261;BME280;11799;47.740;-3.390;2024-02-23T07:59:43;99860.94;;;6.13;100.00
23261;BME280;11799;47.740;-3.390;2024-02-23T08:02:09;99881.19;;;6.11;100.00
23261;BME280;11799;47.740;-3.390;2024-02-23T08:04:34;99881.69;;;6.16;100.00
23261;BME280;11799;47.740;-3.390;2024-02-23T08:07:00;99880.34;;;6.10;100.00
23261;BME280;11799;47.740;-3.390;2024-02-23T08:09:26;99881.25;;;5.98;100.00
23261;BME280;11799;47.740;-3.390;2024-02-23T08:11:51;99867.34;;;6.09;100.00
23261;BME280;11799;47.740;-3.390;2024-02-23T08:14:17;99868.34;;;6.19;100.00
23261;BME280;11799;47.740;-3.390;2024-02-23T08:16:42;99859.41;;;6.21;100.00
23261;BME280;11799;47.740;-3.390;2024-02-23T08:19:08;99852.28;;;6.23;100.00
23261;BME280;11799;47.740;-3.390;2024-02-23T08:21:33;99848.47;;;6.27;100.00
23261;BME280;11799;47.740;-3.390;2024-02-23T08:23:59;99850.72;;;6.21;100.00
23261;BME280;11799;47.740;-3.390;2024-02-23T08:26:24;99840.94;;;6.23;100.00
23261;BME280;11799;47.740;-3.390;2024-02-23T08:28:50;99837.03;;;6.28;100.00
23261;BME280;11799;47.740;-3.390;2024-02-23T08:31:15;99835.59;;;6.24;100.00
23261;BME280;11799;47.740;-3.390;2024-02-23T08:33:42;99826.31;;;6.32;100.00
23261;BME280;11799;47.740;-3.390;2024-02-23T08:36:07;99826.66;;;6.38;100.00
23261;BME280;11799;47.740;-3.390;2024-02-23T08:38:33;99812.81;;;6.36;100.00
23261;BME280;11799;47.740;-3.390;2024-02-23T08:40:59;99818.56;;;6.41;100.00
23261;BME280;11799;47.740;-3.390;2024-02-23T08:43:24;99825.84;;;6.49;100.00
23261;BME280;11799;47.740;-3.390;2024-02-23T08:45:50;99820.81;;;6.46;100.00
23261;BME280;11799;47.740;-3.390;2024-02-23T08:48:15;99813.53;;;6.38;100.00
23261;BME280;11799;47.740;-3.390;2024-02-23T08:50:41;99795.78;;;6.42;100.00
23261;BME280;11799;47.740;-3.390;2024-02-23T08:53:07;99783.16;;;6.36;100.00
23261;BME280;11799;47.740;-3.390;2024-02-23T08:55:32;99783.28;;;6.34;100.00
23261;BME280;11799;47.740;-3.390;2024-02-23T08:57:59;99783.75;;;6.28;100.00
23261;BME280;11799;47.740;-3.390;2024-02-23T09:00:24;99778.88;;;6.35;100.00
23261;BME280;11799;47.740;-3.390;2024-02-23T09:02:50;99787.94;;;6.31;100.00
23261;BME280;11799;47.740;-3.390;2024-02-23T09:05:15;99797.47;;;6.43;100.00
23261;BME280;11799;47.740;-3.390;2024-02-23T09:07:41;99801.03;;;6.42;100.00
23261;BME280;11799;47.740;-3.390;2024-02-23T09:10:07;99805.69;;;6.38;100.00
23261;BME280;11799;47.740;-3.390;2024-02-23T09:12:33;99804.84;;;6.49;100.00
23261;BME280;11799;47.740;-3.390;2024-02-23T09:14:58;99794.97;;;6.52;100.00
23261;BME280;11799;47.740;-3.390;2024-02-23T09:17:24;99800.09;;;6.54;100.00
23261;BME280;11799;47.740;-3.390;2024-02-23T09:19:51;99792.94;;;6.56;100.00
23261;BME280;11799;47.740;-3.390;2024-02-23T09:22:16;99796.28;;;6.58;100.00
23261;BME280;11799;47.740;-3.390;2024-02-23T09:24:42;99802.38;;;6.58;100.00
23261;BME280;11799;47.740;-3.390;2024-02-23T09:27:08;99793.78;;;6.56;100.00
23261;BME280;11799;47.740;-3.390;2024-02-23T09:29:34;99798.69;;;6.72;100.00
23261;BME280;11799;47.740;-3.390;2024-02-23T09:32:00;99785.56;;;6.72;100.00
23261;BME280;11799;47.740;-3.390;2024-02-23T09:34:26;99783.41;;;6.88;100.00
23261;BME280;11799;47.740;-3.390;2024-02-23T09:36:51;99776.97;;;6.92;100.00
23261;BME280;11799;47.740;-3.390;2024-02-23T09:39:17;99769.44;;;6.88;100.00
23261;BME280;11799;47.740;-3.390;2024-02-23T09:41:43;99769.41;;;6.99;100.00
23261;BME280;11799;47.740;-3.390;2024-02-23T09:44:09;99784.56;;;6.95;100.00
23261;BME280;11799;47.740;-3.390;2024-02-23T09:46:36;99779.72;;;6.91;100.00
23261;BME280;11799;47.740;-3.390;2024-02-23T09:49:03;99783.66;;;6.85;100.00
23261;BME280;11799;47.740;-3.390;2024-02-23T09:51:29;99785.31;;;6.86;100.00
23261;BME280;11799;47.740;-3.390;2024-02-23T09:53:55;99796.78;;;6.85;100.00
23261;BME280;11799;47.740;-3.390;2024-02-23T09:56:24;99797.13;;;6.81;100.00
23261;BME280;11799;47.740;-3.390;2024-02-23T09:58:52;99807.25;;;6.85;100.00
23261;BME280;11799;47.740;-3.390;2024-02-23T10:01:26;99813.81;;;6.91;100.00
23261;BME280;11799;47.740;-3.390;2024-02-23T10:03:55;99820.38;;;6.85;100.00
23261;BME280;11799;47.740;-3.390;2024-02-23T10:06:22;99826.22;;;6.78;100.00
23261;BME280;11799;47.740;-3.390;2024-02-23T10:08:47;99822.06;;;6.86;100.00
23261;BME280;11799;47.740;-3.390;2024-02-23T10:11:13;99822.78;;;6.88;100.00
23261;BME280;11799;47.740;-3.390;2024-02-23T10:13:41;99823.56;;;7.00;100.00
23261;BME280;11799;47.740;-3.390;2024-02-23T10:16:06;99831.44;;;7.11;100.00
23261;BME280;11799;47.740;-3.390;2024-02-23T10:18:32;99831.78;;;7.29;100.00
23261;BME280;11799;47.740;-3.390;2024-02-23T10:20:57;99834.38;;;7.40;100.00
23261;BME280;11799;47.740;-3.390;2024-02-23T10:23:23;99839.16;;;7.46;100.00
23261;BME280;11799;47.740;-3.390;2024-02-23T10:25:48;99837.66;;;7.53;100.00
23261;BME280;11799;47.740;-3.390;2024-02-23T10:28:14;99831.34;;;7.56;100.00
23261;BME280;11799;47.740;-3.390;2024-02-23T10:30:40;99838.06;;;7.49;100.00
23261;BME280;11799;47.740;-3.390;2024-02-23T10:33:06;99833.38;;;7.52;100.00
23261;BME280;11799;47.740;-3.390;2024-02-23T10:35:32;99838.69;;;7.41;100.00
23261;BME280;11799;47.740;-3.390;2024-02-23T10:38:01;99822.19;;;7.50;100.00
23261;BME280;11799;47.740;-3.390;2024-02-23T10:40:27;99832.22;;;7.45;100.00
23261;BME280;11799;47.740;-3.390;2024-02-23T10:42:58;99834.16;;;7.43;100.00
23261;BME280;11799;47.740;-3.390;2024-02-23T10:45:28;99828.06;;;7.43;100.00
23261;BME280;11799;47.740;-3.390;2024-02-23T10:47:55;99829.59;;;7.45;100.00
23261;BME280;11799;47.740;-3.390;2024-02-23T10:50:21;99827.94;;;7.44;100.00
23261;BME280;11799;47.740;-3.390;2024-02-23T10:52:48;99824.53;;;7.53;100.00
23261;BME280;11799;47.740;-3.390;2024-02-23T10:55:14;99822.03;;;7.52;100.00
23261;BME280;11799;47.740;-3.390;2024-02-23T10:57:40;99825.13;;;7.57;100.00
23261;BME280;11799;47.740;-3.390;2024-02-23T11:00:07;99828.59;;;7.57;100.00
23261;BME280;11799;47.740;-3.390;2024-02-23T11:02:46;99830.44;;;7.78;100.00
23261;BME280;11799;47.740;-3.390;2024-02-23T11:05:14;99835.41;;;7.92;100.00
23261;BME280;11799;47.740;-3.390;2024-02-23T11:07:41;99834.38;;;8.04;100.00
23261;BME280;11799;47.740;-3.390;2024-02-23T11:10:07;99837.50;;;8.19;100.00
23261;BME280;11799;47.740;-3.390;2024-02-23T11:12:35;99845.47;;;8.28;100.00
23261;BME280;11799;47.740;-3.390;2024-02-23T11:15:01;99855.13;;;8.39;100.00
23261;BME280;11799;47.740;-3.390;2024-02-23T11:17:29;99851.81;;;8.37;100.00
23261;BME280;11799;47.740;-3.390;2024-02-23T11:19:56;99851.88;;;8.47;100.00
23261;BME280;11799;47.740;-3.390;2024-02-23T11:22:32;99845.31;;;8.62;100.00
23261;BME280;11799;47.740;-3.390;2024-02-23T11:25:16;99854.19;;;8.71;100.00
23261;BME280;11799;47.740;-3.390;2024-02-23T11:27:43;99875.50;;;8.68;100.00
23261;BME280;11799;47.740;-3.390;2024-02-23T11:30:09;99878.69;;;8.62;100.00
23261;BME280;11799;47.740;-3.390;2024-02-23T11:32:41;99895.13;;;8.54;100.00
23261;BME280;11799;47.740;-3.390;2024-02-23T11:35:10;99889.34;;;8.39;100.00
23261;BME280;11799;47.740;-3.390;2024-02-23T11:37:51;99887.28;;;8.43;100.00
23261;BME280;11799;47.740;-3.390;2024-02-23T11:40:22;99897.03;;;8.52;100.00
23261;BME280;11799;47.740;-3.390;2024-02-23T11:42:48;99896.00;;;8.43;100.00
23261;BME280;11799;47.740;-3.390;2024-02-23T11:45:13;99907.63;;;8.41;100.00
23261;BME280;11799;47.740;-3.390;2024-02-23T11:47:39;99930.22;;;8.43;100.00
23261;BME280;11799;47.740;-3.390;2024-02-23T11:50:11;99921.44;;;8.54;100.00
23261;BME280;11799;47.740;-3.390;2024-02-23T11:52:39;99937.47;;;8.51;100.00
23261;BME280;11799;47.740;-3.390;2024-02-23T11:55:06;99937.47;;;8.51;100.00
23261;BME280;11799;47.740;-3.390;2024-02-23T11:57:35;99933.63;;;8.55;100.00
23261;BME280;11799;47.740;-3.390;2024-02-23T12:00:01;99947.88;;;8.52;100.00
23261;BME280;11799;47.740;-3.390;2024-02-23T12:02:30;99936.19;;;8.66;100.00
23261;BME280;11799;47.740;-3.390;2024-02-23T12:04:56;99924.66;;;8.57;100.00
23261;BME280;11799;47.740;-3.390;2024-02-23T12:07:21;99930.50;;;8.61;100.00
23261;BME280;11799;47.740;-3.390;2024-02-23T12:09:47;99911.88;;;8.53;100.00
23261;BME280;11799;47.740;-3.390;2024-02-23T12:12:13;99917.50;;;8.48;100.00
23261;BME280;11799;47.740;-3.390;2024-02-23T12:14:40;99921.75;;;8.40;100.00
23261;BME280;11799;47.740;-3.390;2024-02-23T12:17:07;99933.69;;;8.44;100.00
23261;BME280;11799;47.740;-3.390;2024-02-23T12:19:43;99918.22;;;8.50;100.00
23261;BME280;11799;47.740;-3.390;2024-02-23T12:22:10;99913.47;;;8.44;100.00
23261;BME280;11799;47.740;-3.390;2024-02-23T12:24:36;99909.03;;;8.45;100.00
23261;BME280;11799;47.740;-3.390;2024-02-23T12:27:02;99902.19;;;8.53;100.00
23261;BME280;11799;47.740;-3.390;2024-02-23T12:29:27;99886.13;;;8.56;100.00
23261;BME280;11799;47.740;-3.390;2024-02-23T12:32:06;99889.84;;;8.54;100.00
23261;BME280;11799;47.740;-3.390;2024-02-23T12:34:32;99901.94;;;8.56;100.00
23261;BME280;11799;47.740;-3.390;2024-02-23T12:36:58;99897.94;;;8.62;100.00
23261;BME280;11799;47.740;-3.390;2024-02-23T12:39:23;99890.88;;;8.63;100.00
23261;BME280;11799;47.740;-3.390;2024-02-23T12:41:49;99889.38;;;8.70;100.00
23261;BME280;11799;47.740;-3.390;2024-02-23T12:44:16;99871.63;;;8.62;100.00